Time;durP1;ratioP1;P1;durP2;ratioP2;P2;SDS_P1;SDS_P2;PMS_P1;PMS_P2;Temp;Humidity;BMP_temperature;BMP_pressure;BME280_temperature;BME280_humidity;BME280_pressure;Samples;Min_cycle;Max_cycle;Signal;HPM_P1;HPM_P2
2022/02/25 00:01:10;;;;;;;9.13;5.07;;;2.50;99.90;;;;;;5058293;28;20445;-80
2022/02/25 00:03:37;;;;;;;15.97;5.53;;;2.50;99.90;;;;;;5064115;28;20823;-81
2022/02/25 00:06:04;;;;;;;7.77;4.23;;;2.50;99.90;;;;;;5065634;28;20452;-81
2022/02/25 00:08:33;;;;;;;9.07;4.10;;;2.50;99.90;;;;;;5059491;28;20854;-81
2022/02/25 00:11:03;;;;;;;6.43;4.10;;;2.50;99.90;;;;;;5060542;28;20461;-81
2022/02/25 00:13:30;;;;;;;5.80;3.60;;;2.50;99.90;;;;;;5076795;28;21182;-81
2022/02/25 00:15:57;;;;;;;6.57;3.73;;;2.60;99.90;;;;;;5068328;28;20459;-80
2022/02/25 00:18:25;;;;;;;9.03;3.90;;;2.70;99.90;;;;;;5058575;28;20529;-81
2022/02/25 00:20:52;;;;;;;8.33;4.70;;;2.70;99.90;;;;;;5057591;28;20459;-81
2022/02/25 00:23:19;;;;;;;9.10;3.53;;;2.70;99.90;;;;;;5064918;28;20611;-82
2022/02/25 00:25:48;;;;;;;4.60;2.83;;;2.60;99.90;;;;;;5057433;28;20474;-80
2022/02/25 00:28:16;;;;;;;5.40;3.60;;;2.70;99.90;;;;;;5060931;28;20448;-81
2022/02/25 00:30:43;;;;;;;4.20;2.30;;;2.70;99.90;;;;;;5056232;28;20448;-82
2022/02/25 00:33:11;;;;;;;3.80;2.50;;;2.70;99.90;;;;;;5056122;28;21015;-78
2022/02/25 00:35:38;;;;;;;5.10;2.50;;;2.80;99.90;;;;;;5060883;28;20466;-81
2022/02/25 00:38:05;;;;;;;2.60;2.20;;;2.80;99.90;;;;;;5062043;28;20460;-79
2022/02/25 00:40:32;;;;;;;4.37;2.57;;;2.80;99.90;;;;;;5057753;28;20538;-78
2022/02/25 00:43:00;;;;;;;7.80;2.77;;;2.80;99.90;;;;;;5062856;28;20463;-80
2022/02/25 00:45:27;;;;;;;7.13;3.20;;;2.80;99.90;;;;;;5063689;28;20465;-81
2022/02/25 00:47:54;;;;;;;3.60;2.10;;;2.70;99.90;;;;;;5052926;28;20454;-80
2022/02/25 00:50:20;;;;;;;5.93;2.03;;;2.70;99.90;;;;;;5037268;28;20464;-81
2022/02/25 00:52:47;;;;;;;5.00;2.80;;;2.60;99.90;;;;;;5040328;28;20479;-81
2022/02/25 00:55:14;;;;;;;4.83;2.23;;;2.60;99.90;;;;;;5071090;28;20542;-80
2022/02/25 00:57:45;;;;;;;3.50;2.20;;;2.50;99.90;;;;;;5056993;28;20458;-81
2022/02/25 01:00:15;;;;;;;4.87;2.47;;;2.50;99.90;;;;;;5055986;28;20534;-81
2022/02/25 01:02:42;;;;;;;4.13;2.40;;;2.50;99.90;;;;;;5068902;28;21008;-81
2022/02/25 01:05:10;;;;;;;3.57;2.50;;;2.60;99.90;;;;;;5065778;28;20454;-80
2022/02/25 01:07:37;;;;;;;4.47;2.10;;;2.70;99.90;;;;;;5072973;28;20452;-81
2022/02/25 01:10:05;;;;;;;3.77;2.07;;;2.80;99.90;;;;;;5060788;28;20467;-81
2022/02/25 01:12:32;;;;;;;4.57;2.20;;;2.90;99.90;;;;;;5072342;28;20855;-81
2022/02/25 01:14:59;;;;;;;7.97;2.47;;;2.80;99.90;;;;;;5057086;28;20448;-81
2022/02/25 01:17:29;;;;;;;4.87;2.53;;;2.80;99.90;;;;;;5075036;28;20461;-80
2022/02/25 01:19:56;;;;;;;4.33;2.90;;;2.80;99.90;;;;;;5059100;28;20471;-80
2022/02/25 01:22:23;;;;;;;6.37;2.63;;;2.70;99.90;;;;;;5069243;28;20451;-79
2022/02/25 01:24:50;;;;;;;3.70;2.37;;;2.70;99.90;;;;;;5068389;28;20470;-81
2022/02/25 01:27:17;;;;;;;4.20;2.63;;;2.60;99.90;;;;;;5065449;28;20470;-77
2022/02/25 01:29:44;;;;;;;8.40;2.90;;;2.60;99.90;;;;;;5072681;28;20475;-78
2022/02/25 01:32:11;;;;;;;7.87;2.97;;;2.60;99.90;;;;;;5040504;28;20496;-77
2022/02/25 01:34:39;;;;;;;5.13;2.87;;;2.60;99.90;;;;;;5052105;28;20448;-78
2022/02/25 01:37:06;;;;;;;4.83;2.47;;;2.60;99.90;;;;;;5054640;28;20452;-78
2022/02/25 01:39:33;;;;;;;6.13;2.80;;;2.60;99.90;;;;;;5052576;28;20518;-77
2022/02/25 01:42:00;;;;;;;5.30;2.13;;;2.60;99.90;;;;;;5053226;28;20460;-78
2022/02/25 01:44:29;;;;;;;6.77;2.63;;;2.60;99.90;;;;;;5054798;28;20447;-79
2022/02/25 01:46:58;;;;;;;7.13;3.00;;;2.60;99.90;;;;;;5057503;28;20482;-79
2022/02/25 01:49:26;;;;;;;5.13;2.47;;;2.60;99.90;;;;;;5058048;28;20453;-80
2022/02/25 01:51:57;;;;;;;6.80;2.70;;;2.60;99.90;;;;;;5057672;28;20490;-77
2022/02/25 01:54:25;;;;;;;10.43;2.90;;;2.60;99.90;;;;;;5057006;28;20959;-78
2022/02/25 01:56:54;;;;;;;5.03;2.57;;;2.60;99.90;;;;;;5058418;28;20458;-79
2022/02/25 01:59:22;;;;;;;5.73;2.50;;;2.60;99.90;;;;;;5058397;28;20479;-79
2022/02/25 02:01:49;;;;;;;7.10;2.77;;;2.60;99.90;;;;;;5057954;28;20529;-79
2022/02/25 02:04:16;;;;;;;4.53;2.10;;;2.50;99.90;;;;;;5057556;28;20828;-79
2022/02/25 02:06:43;;;;;;;4.87;2.43;;;2.60;99.90;;;;;;5058110;28;20831;-78
2022/02/25 02:09:11;;;;;;;3.80;2.27;;;2.60;99.90;;;;;;5058497;28;21007;-77
2022/02/25 02:11:41;;;;;;;9.23;2.33;;;2.60;99.90;;;;;;5058241;28;20451;-79
2022/02/25 02:14:12;;;;;;;5.23;2.40;;;2.60;99.90;;;;;;5056830;28;20452;-78
2022/02/25 02:16:39;;;;;;;12.23;2.53;;;2.60;99.90;;;;;;5058752;28;20452;-79
2022/02/25 02:19:06;;;;;;;7.20;1.80;;;2.60;99.90;;;;;;5057940;28;20469;-79
2022/02/25 02:21:36;;;;;;;4.50;1.93;;;2.60;99.90;;;;;;5058209;28;20451;-77
2022/02/25 02:24:05;;;;;;;8.53;2.67;;;2.60;99.90;;;;;;5068959;28;21080;-79
2022/02/25 02:26:32;;;;;;;9.87;2.50;;;2.60;99.90;;;;;;5061927;28;21009;-78
2022/02/25 02:28:59;;;;;;;3.43;2.20;;;2.60;99.90;;;;;;5058283;28;20472;-77
2022/02/25 02:31:26;;;;;;;10.40;2.60;;;2.50;99.90;;;;;;5057587;28;20451;-78
2022/02/25 02:33:53;;;;;;;5.27;2.20;;;2.50;99.90;;;;;;5057278;28;20479;-79
2022/02/25 02:36:20;;;;;;;5.00;2.30;;;2.50;99.90;;;;;;5057988;28;20458;-78
2022/02/25 02:38:47;;;;;;;5.80;2.37;;;2.50;99.90;;;;;;5057979;28;20499;-78
2022/02/25 02:41:15;;;;;;;3.93;2.20;;;2.60;99.90;;;;;;5056912;28;20452;-78
2022/02/25 02:43:43;;;;;;;7.37;2.30;;;2.60;99.90;;;;;;5071845;28;20447;-79
2022/02/25 02:46:11;;;;;;;5.40;2.17;;;2.50;99.90;;;;;;5067508;28;20527;-78
2022/02/25 02:48:39;;;;;;;8.77;2.07;;;2.60;99.90;;;;;;5068549;28;20478;-79
2022/02/25 02:51:05;;;;;;;4.90;1.63;;;2.50;99.90;;;;;;5062915;28;20456;-79
2022/02/25 02:53:32;;;;;;;6.03;4.00;;;2.60;99.90;;;;;;5060681;28;20505;-79
2022/02/25 02:55:59;;;;;;;4.57;1.70;;;2.50;99.90;;;;;;5069070;28;20454;-79
2022/02/25 02:58:27;;;;;;;5.77;1.63;;;2.50;99.90;;;;;;5063765;28;20466;-78
2022/02/25 03:00:54;;;;;;;4.30;1.87;;;2.60;99.90;;;;;;5064522;28;20475;-79
2022/02/25 03:03:22;;;;;;;6.57;1.70;;;2.60;99.90;;;;;;5056733;28;20452;-78
2022/02/25 03:05:50;;;;;;;4.93;1.83;;;2.60;99.90;;;;;;5064801;28;20959;-79
2022/02/25 03:08:17;;;;;;;9.80;1.87;;;2.60;99.90;;;;;;5063910;28;20477;-79
2022/02/25 03:10:45;;;;;;;5.87;1.53;;;2.60;99.90;;;;;;5074765;28;20451;-78
2022/02/25 03:13:14;;;;;;;5.07;2.13;;;2.60;99.90;;;;;;5072951;28;20476;-79
2022/02/25 03:15:42;;;;;;;3.83;1.30;;;2.50;99.90;;;;;;5062780;28;20455;-79
2022/02/25 03:18:10;;;;;;;4.90;1.80;;;2.60;99.90;;;;;;5071006;28;20836;-79
2022/02/25 03:20:37;;;;;;;5.63;1.80;;;2.60;99.90;;;;;;5068906;28;20550;-78
2022/02/25 03:23:04;;;;;;;5.90;1.93;;;2.60;99.90;;;;;;5066033;28;20499;-79
2022/02/25 03:25:31;;;;;;;3.23;1.27;;;2.60;99.90;;;;;;5065391;28;20551;-79
2022/02/25 03:27:58;;;;;;;6.10;1.40;;;2.60;99.90;;;;;;5058105;28;20998;-80
2022/02/25 03:30:25;;;;;;;7.93;2.77;;;2.50;99.90;;;;;;5057157;28;20995;-79
2022/02/25 03:32:54;;;;;;;8.03;1.70;;;2.50;99.90;;;;;;5063825;28;20493;-78
2022/02/25 03:35:21;;;;;;;5.53;1.70;;;2.50;99.90;;;;;;5072230;28;20509;-78
2022/02/25 03:37:48;;;;;;;11.17;2.37;;;2.50;99.90;;;;;;5059105;28;20476;-79
2022/02/25 03:40:15;;;;;;;4.00;1.70;;;2.50;99.90;;;;;;5058047;28;20482;-80
2022/02/25 03:42:43;;;;;;;8.43;1.80;;;2.50;99.90;;;;;;5058471;28;20450;-80
2022/02/25 03:45:13;;;;;;;5.80;2.00;;;2.50;99.90;;;;;;5058393;28;20452;-78
2022/02/25 03:47:40;;;;;;;6.60;1.50;;;2.50;99.90;;;;;;5073700;28;20443;-79
2022/02/25 03:50:10;;;;;;;7.63;2.00;;;2.50;99.90;;;;;;5072313;28;20547;-80
2022/02/25 03:52:38;;;;;;;4.87;1.70;;;2.50;99.90;;;;;;5065058;28;20475;-78
2022/02/25 03:55:06;;;;;;;14.17;2.30;;;2.50;99.90;;;;;;5071586;28;20901;-79
2022/02/25 03:57:33;;;;;;;8.27;1.87;;;2.50;99.90;;;;;;5065180;28;20831;-78
2022/02/25 04:00:00;;;;;;;5.57;1.77;;;2.40;99.90;;;;;;5070474;28;20484;-79
2022/02/25 04:02:27;;;;;;;7.83;2.00;;;2.50;99.90;;;;;;5057382;28;21043;-79
2022/02/25 04:04:54;;;;;;;7.70;2.27;;;2.50;99.90;;;;;;5061013;28;20459;-79
2022/02/25 04:07:22;;;;;;;7.43;1.50;;;2.50;99.90;;;;;;5067861;28;20542;-79
2022/02/25 04:09:49;;;;;;;5.53;1.63;;;2.50;99.90;;;;;;5054560;28;20487;-79
2022/02/25 04:12:16;;;;;;;8.07;2.13;;;2.50;99.90;;;;;;5056547;28;20460;-79
2022/02/25 04:14:42;;;;;;;7.70;1.80;;;2.50;99.90;;;;;;5057691;28;20510;-79
2022/02/25 04:17:10;;;;;;;5.63;1.93;;;2.50;99.90;;;;;;5064699;28;20480;-77
2022/02/25 04:19:36;;;;;;;6.43;1.90;;;2.50;99.90;;;;;;5059209;28;20536;-80
2022/02/25 04:22:04;;;;;;;6.90;1.87;;;2.50;99.90;;;;;;5056440;28;20456;-78
2022/02/25 04:24:32;;;;;;;6.20;1.73;;;2.50;99.90;;;;;;5057056;28;21006;-79
2022/02/25 04:26:59;;;;;;;7.43;1.83;;;2.50;99.90;;;;;;5071000;28;20452;-78
2022/02/25 04:29:25;;;;;;;10.17;2.00;;;2.40;99.90;;;;;;5063297;28;20468;-79
2022/02/25 04:31:52;;;;;;;8.63;2.27;;;2.50;99.90;;;;;;5057383;28;20827;-79
2022/02/25 04:34:19;;;;;;;9.73;1.90;;;2.50;99.90;;;;;;5063628;28;20857;-79
2022/02/25 04:36:46;;;;;;;7.87;2.13;;;2.50;99.90;;;;;;5072390;28;20487;-79
2022/02/25 04:39:13;;;;;;;5.43;1.77;;;2.50;99.90;;;;;;5057244;28;20965;-79
2022/02/25 04:41:41;;;;;;;3.83;1.63;;;2.50;99.90;;;;;;5058683;28;20448;-79
2022/02/25 04:44:08;;;;;;;5.70;1.63;;;2.50;99.90;;;;;;5069672;28;20447;-79
2022/02/25 04:46:35;;;;;;;6.13;2.20;;;2.40;99.90;;;;;;5065692;28;20833;-79
2022/02/25 04:49:02;;;;;;;4.07;1.80;;;2.50;99.90;;;;;;5060824;28;20507;-80
2022/02/25 04:51:29;;;;;;;5.13;1.87;;;2.40;99.90;;;;;;5056164;28;20459;-79
2022/02/25 04:53:56;;;;;;;7.00;1.73;;;2.40;99.90;;;;;;5056279;28;20499;-80
2022/02/25 04:56:23;;;;;;;12.90;3.13;;;2.40;99.90;;;;;;5056417;28;20458;-78
2022/02/25 04:58:51;;;;;;;7.43;1.70;;;2.40;99.90;;;;;;5055737;28;20502;-81
2022/02/25 05:01:18;;;;;;;6.93;1.67;;;2.40;99.90;;;;;;5056350;28;20480;-79
2022/02/25 05:03:45;;;;;;;14.40;3.60;;;2.40;99.90;;;;;;5055656;28;20444;-79
2022/02/25 05:06:12;;;;;;;6.00;1.83;;;2.40;99.90;;;;;;5056257;28;20447;-80
2022/02/25 05:08:39;;;;;;;6.25;1.65;;;2.40;99.90;;;;;;5057154;28;20570;-79
2022/02/25 05:11:06;;;;;;;7.47;1.70;;;2.40;99.90;;;;;;5055787;28;20208;-79
2022/02/25 05:13:33;;;;;;;6.80;1.67;;;2.40;99.90;;;;;;5055208;28;20243;-78
2022/02/25 05:21:29;;;;;;;4.57;1.83;;;2.40;99.90;;;;;;5055791;28;21069;-79
2022/02/25 05:23:56;;;;;;;6.63;2.53;;;2.40;99.90;;;;;;5055735;28;20930;-80
2022/02/25 05:26:23;;;;;;;4.23;2.23;;;2.40;99.90;;;;;;5056813;28;20964;-82
2022/02/25 05:28:51;;;;;;;7.57;2.83;;;2.30;99.90;;;;;;5058912;28;20495;-84
2022/02/25 05:31:19;;;;;;;11.77;3.60;;;2.30;99.90;;;;;;5060404;28;20458;-83
2022/02/25 05:33:46;;;;;;;20.60;3.67;;;2.30;99.90;;;;;;5062386;28;20491;-83
2022/02/25 05:36:14;;;;;;;5.93;2.27;;;2.30;99.90;;;;;;5066874;28;20471;-83
2022/02/25 05:38:41;;;;;;;6.23;2.30;;;2.30;99.90;;;;;;5063975;28;20535;-83
2022/02/25 05:41:08;;;;;;;16.27;3.60;;;2.30;99.90;;;;;;5064490;28;20472;-83
2022/02/25 05:43:35;;;;;;;7.43;1.90;;;2.30;99.90;;;;;;5063100;28;20460;-83
2022/02/25 05:46:02;;;;;;;8.83;2.57;;;2.30;99.90;;;;;;5064053;28;20830;-83
2022/02/25 05:48:30;;;;;;;5.10;1.77;;;2.30;99.90;;;;;;5055098;28;20567;-83
2022/02/25 05:50:57;;;;;;;6.00;2.17;;;2.30;99.90;;;;;;5053209;28;20547;-83
2022/02/25 05:53:24;;;;;;;6.80;2.53;;;2.30;99.90;;;;;;5079567;28;20513;-83
2022/02/25 05:55:51;;;;;;;12.03;2.17;;;2.30;99.90;;;;;;5080471;28;20453;-83
2022/02/25 05:58:17;;;;;;;7.20;2.77;;;2.30;99.90;;;;;;5072855;28;20523;-83
2022/02/25 06:00:44;;;;;;;7.93;2.50;;;2.40;99.90;;;;;;5071705;28;20444;-82
2022/02/25 06:03:11;;;;;;;5.77;2.20;;;2.30;99.90;;;;;;5071943;28;20452;-83
2022/02/25 06:05:39;;;;;;;7.90;2.23;;;2.30;99.90;;;;;;5073052;28;20432;-84
2022/02/25 06:08:06;;;;;;;9.37;1.97;;;2.30;99.90;;;;;;5071219;28;21014;-80
2022/02/25 06:10:33;;;;;;;5.33;1.93;;;2.30;99.90;;;;;;5065276;28;20448;-81
2022/02/25 06:13:00;;;;;;;7.47;2.20;;;2.30;99.90;;;;;;5059037;28;20494;-82
2022/02/25 06:15:27;;;;;;;9.37;2.57;;;2.30;99.90;;;;;;5064581;28;20454;-82
2022/02/25 06:17:54;;;;;;;6.83;2.30;;;2.30;99.90;;;;;;5072416;28;20456;-82
2022/02/25 06:20:23;;;;;;;6.77;2.43;;;2.30;99.90;;;;;;5062175;28;20995;-79
2022/02/25 06:22:51;;;;;;;12.70;3.10;;;2.30;99.90;;;;;;5049817;28;20460;-78
2022/02/25 06:25:18;;;;;;;7.60;1.90;;;2.40;99.90;;;;;;5062606;28;20464;-81
2022/02/25 06:27:45;;;;;;;8.90;2.07;;;2.40;99.90;;;;;;5058746;28;20597;-80
2022/02/25 06:30:14;;;;;;;5.87;1.90;;;2.40;99.90;;;;;;5067918;28;20517;-80
2022/02/25 06:32:41;;;;;;;9.43;2.13;;;2.40;99.90;;;;;;5060754;28;20452;-80
2022/02/25 06:35:08;;;;;;;6.53;1.77;;;2.50;99.90;;;;;;5058784;28;20475;-80
2022/02/25 06:37:36;;;;;;;7.90;2.37;;;2.50;99.90;;;;;;5077095;28;20454;-80
2022/02/25 06:40:05;;;;;;;10.43;2.87;;;2.50;99.90;;;;;;5059850;28;20471;-81
2022/02/25 06:42:32;;;;;;;11.63;2.93;;;2.60;99.90;;;;;;5073071;28;20455;-80
2022/02/25 06:44:58;;;;;;;11.23;2.73;;;2.60;99.90;;;;;;5073702;28;20534;-80
2022/02/25 06:47:25;;;;;;;15.32;2.53;;;2.60;99.90;;;;;;5080991;28;20473;-79
2022/02/25 06:49:52;;;;;;;7.27;2.40;;;2.60;99.90;;;;;;5072975;28;20229;-81
2022/02/25 06:52:19;;;;;;;5.67;1.80;;;2.60;99.90;;;;;;5061741;28;20961;-81
2022/02/25 06:54:46;;;;;;;15.93;2.57;;;2.70;99.90;;;;;;5075320;28;20557;-81
2022/02/25 06:57:14;;;;;;;9.67;3.47;;;2.70;99.90;;;;;;5079967;28;20456;-80
2022/02/25 06:59:41;;;;;;;4.43;1.87;;;2.70;99.90;;;;;;5081920;28;20506;-81
2022/02/25 07:02:08;;;;;;;9.70;2.33;;;2.70;99.90;;;;;;5065318;28;20462;-80
2022/02/25 07:04:35;;;;;;;6.80;2.10;;;2.80;99.90;;;;;;5062667;28;20455;-80
2022/02/25 07:07:02;;;;;;;9.03;2.43;;;2.80;99.90;;;;;;5067975;28;20452;-80
2022/02/25 07:09:29;;;;;;;6.70;1.73;;;2.80;99.90;;;;;;5064335;28;20460;-79
2022/02/25 07:11:55;;;;;;;8.00;2.20;;;2.80;99.90;;;;;;5057410;28;20539;-79
2022/02/25 07:14:24;;;;;;;8.77;2.20;;;2.80;99.90;;;;;;5054885;28;20496;-80
2022/02/25 07:16:50;;;;;;;10.30;2.13;;;2.90;99.90;;;;;;5070279;28;20516;-78
2022/02/25 07:19:17;;;;;;;11.63;3.20;;;3.00;99.90;;;;;;5058266;28;20491;-80
2022/02/25 07:21:44;;;;;;;6.13;2.23;;;3.10;99.90;;;;;;5056324;28;20456;-78
2022/02/25 07:24:11;;;;;;;9.67;2.70;;;3.10;99.90;;;;;;5060762;28;20987;-80
2022/02/25 07:26:38;;;;;;;7.87;3.00;;;3.10;99.90;;;;;;5061140;28;20463;-79
2022/02/25 07:29:06;;;;;;;5.43;2.03;;;3.10;99.90;;;;;;5058414;28;20476;-82
2022/02/25 07:31:34;;;;;;;6.80;2.10;;;3.20;99.90;;;;;;5047780;28;20453;-80
2022/02/25 07:34:01;;;;;;;7.40;3.57;;;3.30;99.90;;;;;;5049911;28;20476;-81
2022/02/25 07:36:28;;;;;;;6.20;1.60;;;3.50;99.90;;;;;;5062217;28;20458;-81
2022/02/25 07:38:54;;;;;;;8.07;1.77;;;3.60;99.90;;;;;;5049916;28;20481;-79
2022/02/25 07:41:21;;;;;;;10.70;1.90;;;3.90;99.90;;;;;;5046985;28;20453;-79
2022/02/25 07:43:48;;;;;;;12.20;1.93;;;4.00;99.90;;;;;;5054711;28;20457;-80
2022/02/25 07:46:15;;;;;;;8.07;2.80;;;4.20;99.90;;;;;;5053767;28;20491;-79
2022/02/25 07:48:44;;;;;;;4.37;1.67;;;4.40;99.90;;;;;;5049337;28;20463;-79
2022/02/25 07:51:11;;;;;;;8.00;2.37;;;4.70;99.90;;;;;;5052946;28;20463;-79
2022/02/25 07:53:38;;;;;;;12.23;2.73;;;4.80;99.90;;;;;;5043917;28;20492;-79
2022/02/25 07:56:35;;;;;;;11.60;2.83;;;4.70;99.90;;;;;;5053601;28;20449;-80
2022/02/25 07:59:02;;;;;;;8.07;2.70;;;4.50;99.90;;;;;;5030509;28;20487;-80
2022/02/25 08:01:29;;;;;;;7.90;2.33;;;4.30;99.90;;;;;;5051298;28;20460;-79
2022/02/25 08:03:57;;;;;;;10.03;2.50;;;4.30;99.90;;;;;;5062329;28;20478;-78
2022/02/25 08:06:24;;;;;;;10.27;2.83;;;4.30;99.90;;;;;;5055742;28;20441;-78
2022/02/25 08:08:51;;;;;;;8.73;2.67;;;4.20;99.90;;;;;;5057068;28;20468;-78
2022/02/25 08:11:17;;;;;;;7.30;2.40;;;4.00;99.90;;;;;;5061532;28;20997;-80
2022/02/25 08:13:45;;;;;;;8.10;2.90;;;3.90;99.90;;;;;;5061675;28;21031;-79
2022/02/25 08:16:12;;;;;;;13.27;2.77;;;3.70;99.90;;;;;;5049862;28;20506;-78
2022/02/25 08:18:39;;;;;;;8.20;3.07;;;3.60;99.90;;;;;;5054186;28;20507;-80
2022/02/25 08:21:08;;;;;;;14.13;3.43;;;3.50;99.90;;;;;;5058223;28;20452;-80
2022/02/25 08:23:34;;;;;;;14.50;2.70;;;3.50;99.90;;;;;;5060676;28;20449;-79
2022/02/25 08:26:02;;;;;;;12.10;2.60;;;3.50;99.90;;;;;;5055667;28;20460;-79
2022/02/25 08:28:28;;;;;;;9.63;3.13;;;3.50;99.90;;;;;;5058035;28;20477;-79
2022/02/25 08:30:55;;;;;;;17.43;8.17;;;3.70;99.90;;;;;;5049437;28;20463;-79
2022/02/25 08:33:22;;;;;;;11.57;2.80;;;3.70;99.90;;;;;;5052921;28;20446;-79
2022/02/25 08:35:49;;;;;;;9.83;2.90;;;3.70;99.90;;;;;;5062879;28;20461;-80
2022/02/25 08:38:17;;;;;;;16.27;3.30;;;3.80;99.90;;;;;;5054792;28;20456;-79
2022/02/25 08:40:45;;;;;;;10.13;3.93;;;3.80;99.90;;;;;;5055762;28;20457;-79
2022/02/25 08:43:12;;;;;;;15.20;4.27;;;3.80;99.90;;;;;;5056688;28;20544;-79
2022/02/25 08:45:41;;;;;;;16.23;4.00;;;3.80;99.90;;;;;;5065259;28;20455;-79
2022/02/25 08:48:08;;;;;;;18.80;4.27;;;3.70;99.90;;;;;;5055647;28;20450;-79
2022/02/25 08:50:35;;;;;;;15.97;4.40;;;3.70;99.90;;;;;;5052221;28;21023;-80
2022/02/25 08:53:02;;;;;;;14.87;3.13;;;3.70;99.90;;;;;;5064575;28;20462;-79
2022/02/25 08:55:30;;;;;;;30.20;10.10;;;3.80;99.90;;;;;;5053113;28;20496;-80
2022/02/25 08:57:57;;;;;;;16.67;6.37;;;3.70;99.90;;;;;;5064018;28;20480;-81
2022/02/25 09:00:25;;;;;;;22.80;4.10;;;3.70;99.90;;;;;;5052534;28;20474;-80
2022/02/25 09:02:53;;;;;;;11.07;3.43;;;3.70;99.90;;;;;;5052704;28;20460;-80
2022/02/25 09:05:22;;;;;;;7.93;3.00;;;3.70;99.90;;;;;;5031978;28;20461;-79
2022/02/25 09:07:50;;;;;;;8.67;3.23;;;3.80;99.90;;;;;;5070257;28;20452;-79
2022/02/25 09:10:17;;;;;;;14.93;3.47;;;3.90;99.90;;;;;;5071056;28;20476;-80
2022/02/25 09:12:47;;;;;;;10.10;3.40;;;4.20;99.90;;;;;;5062229;28;20460;-79
2022/02/25 09:15:16;;;;;;;11.43;3.40;;;4.40;99.90;;;;;;5053218;28;20477;-81
2022/02/25 09:17:43;;;;;;;10.00;3.10;;;4.40;99.90;;;;;;5062789;28;20543;-81
2022/02/25 09:20:12;;;;;;;10.33;3.33;;;4.50;99.90;;;;;;5064656;28;20473;-80
2022/02/25 09:22:40;;;;;;;7.50;2.70;;;4.50;99.90;;;;;;5052569;28;20452;-80
2022/02/25 09:25:07;;;;;;;10.50;3.40;;;4.70;99.90;;;;;;5052576;28;20923;-79
2022/02/25 09:27:34;;;;;;;7.30;2.30;;;4.80;99.90;;;;;;5052622;28;20472;-80
2022/02/25 09:30:03;;;;;;;10.87;3.20;;;4.90;99.90;;;;;;5052758;28;20482;-79
2022/02/25 09:32:30;;;;;;;14.23;3.30;;;5.40;99.90;;;;;;5052495;28;20983;-81
2022/02/25 09:34:57;;;;;;;17.67;3.70;;;6.20;99.90;;;;;;5052078;28;20492;-80
2022/02/25 09:37:24;;;;;;;8.53;3.73;;;7.00;99.90;;;;;;5063729;28;20457;-81
2022/02/25 09:39:51;;;;;;;15.33;3.03;;;7.20;99.90;;;;;;5072116;28;20480;-80
2022/02/25 09:42:21;;;;;;;14.90;4.03;;;7.30;99.90;;;;;;5052721;28;20452;-80
2022/02/25 09:44:47;;;;;;;12.07;3.00;;;7.50;99.90;;;;;;5052619;28;20447;-80
2022/02/25 09:47:17;;;;;;;7.67;2.50;;;7.20;99.90;;;;;;5056923;28;20458;-79
2022/02/25 09:49:44;;;;;;;10.43;3.10;;;7.00;99.90;;;;;;5056888;28;20505;-80
2022/02/25 09:52:14;;;;;;;13.87;3.83;;;6.90;99.90;;;;;;5056721;28;20458;-79
2022/02/25 09:54:41;;;;;;;9.70;3.30;;;6.90;99.90;;;;;;5055012;28;20860;-81
2022/02/25 09:57:08;;;;;;;13.00;3.57;;;6.80;99.90;;;;;;5054846;28;20545;-80
2022/02/25 09:59:35;;;;;;;18.53;3.80;;;6.70;99.90;;;;;;5070168;28;20527;-81
2022/02/25 10:02:03;;;;;;;15.23;4.23;;;6.80;99.90;;;;;;5065326;28;20458;-79
2022/02/25 10:04:32;;;;;;;8.97;2.93;;;6.80;99.90;;;;;;5062368;28;20496;-82
2022/02/25 10:06:59;;;;;;;10.67;3.50;;;6.60;99.90;;;;;;5059456;28;20463;-80
2022/02/25 10:09:33;;;;;;;13.83;4.67;;;6.60;99.90;;;;;;5054452;28;20482;-81
2022/02/25 10:12:06;;;;;;;12.60;3.57;;;6.60;99.90;;;;;;5056161;28;20460;-83
2022/02/25 10:14:35;;;;;;;17.60;3.60;;;6.60;99.90;;;;;;5061618;28;20915;-79
2022/02/25 10:17:14;;;;;;;15.10;4.10;;;6.40;99.90;;;;;;5051971;28;20467;-80
2022/02/25 10:19:43;;;;;;;14.10;4.33;;;6.40;99.90;;;;;;5060278;28;20482;-80
2022/02/25 10:22:20;;;;;;;14.47;4.20;;;6.40;99.90;;;;;;5060282;28;20474;-79
2022/02/25 10:24:49;;;;;;;12.87;3.77;;;6.40;99.90;;;;;;5052575;28;20496;-81
2022/02/25 10:27:24;;;;;;;9.20;3.60;;;6.40;99.90;;;;;;5062838;28;20466;-79
2022/02/25 10:30:05;;;;;;;13.00;4.07;;;6.50;99.90;;;;;;5043800;28;20479;-79
2022/02/25 10:32:37;;;;;;;20.43;6.13;;;6.50;99.90;;;;;;5060757;28;20445;-81
2022/02/25 10:35:29;;;;;;;14.70;6.67;;;6.50;99.90;;;;;;5056337;28;20499;-81
2022/02/25 10:38:05;;;;;;;14.43;5.53;;;6.50;99.90;;;;;;5062143;28;20471;-80
2022/02/25 10:40:34;;;;;;;9.87;4.40;;;6.50;99.90;;;;;;5062887;28;20475;-81
2022/02/25 10:43:02;;;;;;;15.67;5.00;;;6.60;99.90;;;;;;5060474;28;20454;-80
2022/02/25 10:45:32;;;;;;;15.37;5.77;;;6.60;99.90;;;;;;5062120;28;20465;-81
2022/02/25 10:48:01;;;;;;;21.03;6.33;;;6.80;99.90;;;;;;5062250;28;20459;-81
2022/02/25 10:50:30;;;;;;;10.40;4.43;;;7.00;99.90;;;;;;5055958;28;20489;-81
2022/02/25 10:52:58;;;;;;;12.40;4.10;;;7.30;99.90;;;;;;5048047;28;20482;-79
2022/02/25 10:55:27;;;;;;;11.60;3.50;;;7.50;99.90;;;;;;5060785;28;20480;-80
2022/02/25 10:57:56;;;;;;;16.23;4.37;;;7.80;99.90;;;;;;5059817;28;20459;-82
2022/02/25 11:00:25;;;;;;;11.50;4.23;;;8.00;99.90;;;;;;5057908;28;20579;-81
2022/02/25 11:02:56;;;;;;;9.50;3.60;;;8.00;99.90;;;;;;5059155;28;20547;-80
2022/02/25 11:05:24;;;;;;;14.20;4.40;;;8.10;99.90;;;;;;5058635;28;20842;-80
2022/02/25 11:07:54;;;;;;;10.07;3.43;;;8.50;99.90;;;;;;5047489;28;21051;-80
2022/02/25 11:10:22;;;;;;;10.70;3.70;;;9.10;99.90;;;;;;5058829;28;20474;-80
2022/02/25 11:12:50;;;;;;;9.90;2.90;;;10.10;99.90;;;;;;5054077;28;20457;-81
2022/02/25 11:15:19;;;;;;;9.40;3.10;;;10.10;99.90;;;;;;5049943;28;20492;-80
2022/02/25 11:17:48;;;;;;;12.30;3.60;;;10.10;99.90;;;;;;5059080;28;20447;-81
2022/02/25 11:20:19;;;;;;;11.17;4.10;;;9.70;99.90;;;;;;5054595;28;20483;-81
2022/02/25 11:22:48;;;;;;;8.20;4.17;;;9.20;99.90;;;;;;5057835;28;20485;-80
2022/02/25 11:25:18;;;;;;;14.50;4.00;;;8.60;99.90;;;;;;5053209;28;20475;-81
2022/02/25 11:27:46;;;;;;;10.00;3.90;;;8.30;99.90;;;;;;5050450;28;20917;-82
2022/02/25 11:30:17;;;;;;;9.50;4.10;;;7.60;99.90;;;;;;5056749;28;20476;-81
2022/02/25 11:32:55;;;;;;;12.53;5.10;;;7.30;99.90;;;;;;5047145;28;20519;-79
2022/02/25 11:35:24;;;;;;;11.70;4.50;;;7.20;99.90;;;;;;5043798;28;20514;-80
2022/02/25 11:37:53;;;;;;;13.30;5.90;;;6.90;99.90;;;;;;5055895;28;21188;-82
2022/02/25 11:40:51;;;;;;;12.03;4.00;;;6.80;99.90;;;;;;5047171;28;20862;-82
2022/02/25 11:43:38;;;;;;;16.03;4.00;;;6.70;99.90;;;;;;5054328;28;20463;-80
2022/02/25 11:46:06;;;;;;;14.40;3.90;;;6.40;99.90;;;;;;5054282;28;20585;-81
2022/02/25 11:48:42;;;;;;;13.77;4.37;;;6.30;99.90;;;;;;5055003;28;20479;-80
2022/02/25 11:51:32;;;;;;;9.70;4.33;;;6.30;99.90;;;;;;5056556;28;20463;-80
2022/02/25 11:54:26;;;;;;;10.10;4.33;;;6.20;99.90;;;;;;5052489;28;20455;-80
2022/02/25 11:57:32;;;;;;;11.60;5.00;;;6.00;99.90;;;;;;5062186;28;20468;-80
2022/02/25 12:00:18;;;;;;;13.67;5.93;;;6.00;99.90;;;;;;5050527;28;20523;-81
2022/02/25 12:03:15;;;;;;;7.30;3.50;;;6.50;99.90;;;;;;5058103;28;20460;-82
2022/02/25 12:05:44;;;;;;;13.93;4.37;;;8.80;99.90;;;;;;5056067;28;20458;-81
2022/02/25 12:08:29;;;;;;;10.33;4.40;;;10.80;99.90;;;;;;5041815;28;20441;-80
2022/02/25 12:11:17;;;;;;;10.27;3.67;;;12.40;99.90;;;;;;5056517;28;20455;-80
2022/02/25 12:13:47;;;;;;;9.33;3.40;;;13.50;99.90;;;;;;5057312;28;20444;-81
2022/02/25 12:16:35;;;;;;;12.30;3.00;;;13.80;99.90;;;;;;5058780;28;20484;-82
2022/02/25 12:19:21;;;;;;;7.73;3.80;;;13.40;99.90;;;;;;5059214;28;20463;-81
2022/02/25 12:21:50;;;;;;;10.03;3.63;;;13.00;99.90;;;;;;5057486;28;20467;-81
2022/02/25 12:24:20;;;;;;;12.37;4.00;;;12.90;99.90;;;;;;5056445;28;20920;-81
2022/02/25 12:26:58;;;;;;;10.60;3.70;;;12.70;99.90;;;;;;5057192;28;20548;-81
2022/02/25 12:29:36;;;;;;;11.53;3.73;;;12.70;99.90;;;;;;5059074;28;20468;-82
2022/02/25 12:32:05;;;;;;;16.07;4.43;;;12.80;99.90;;;;;;5057587;28;20796;-81
2022/02/25 12:34:32;;;;;;;20.80;4.30;;;12.80;99.90;;;;;;5053180;28;20479;-80
2022/02/25 12:37:03;;;;;;;13.60;6.67;;;12.10;99.90;;;;;;5048931;28;21035;-80
2022/02/25 12:39:35;;;;;;;13.37;3.50;;;11.00;99.90;;;;;;5052218;28;20545;-81
2022/02/25 12:42:05;;;;;;;10.83;4.23;;;10.50;99.90;;;;;;5053473;28;21001;-81
2022/02/25 12:44:34;;;;;;;11.60;4.27;;;9.80;99.90;;;;;;5058062;28;20456;-81
2022/02/25 12:47:03;;;;;;;8.03;3.07;;;9.50;99.90;;;;;;5037227;28;20491;-79
2022/02/25 12:49:32;;;;;;;10.10;3.60;;;9.00;99.90;;;;;;5038448;28;20877;-81
2022/02/25 12:52:01;;;;;;;6.27;1.40;;;8.80;99.90;;;;;;5054822;28;20464;-82
2022/02/25 12:54:29;;;;;;;9.07;1.87;;;8.70;99.90;;;;;;5052347;28;20452;-78
2022/02/25 12:56:59;;;;;;;12.03;2.53;;;8.70;99.90;;;;;;5055207;28;20527;-80
2022/02/25 12:59:34;;;;;;;5.60;1.67;;;9.20;99.90;;;;;;5055405;28;20482;-78
2022/02/25 13:02:03;;;;;;;6.33;1.57;;;11.00;99.90;;;;;;5051957;28;20475;-80
2022/02/25 13:04:33;;;;;;;5.40;1.37;;;11.50;99.90;;;;;;5054382;28;20462;-81
2022/02/25 13:07:02;;;;;;;32.03;27.93;;;11.80;99.90;;;;;;5055634;28;20522;-81